createdAt,value
2018-05-02T00:02:16.154Z,75.94
2018-05-02T00:04:43.540Z,76.08
2018-05-02T00:07:10.922Z,75.95
2018-05-02T00:09:38.321Z,75.98
2018-05-02T00:12:05.698Z,76.23
2018-05-02T00:14:33.090Z,76.57
2018-05-02T00:17:00.486Z,76.97
2018-05-02T00:19:27.871Z,77.16
2018-05-02T00:21:55.247Z,77.24
2018-05-02T00:24:22.638Z,77.44
2018-05-02T00:26:50.023Z,77.42
2018-05-02T00:29:17.402Z,77.30
2018-05-02T00:31:44.782Z,77.03
2018-05-02T00:34:12.171Z,76.83
2018-05-02T00:36:39.735Z,76.21
2018-05-02T00:39:07.609Z,75.97
2018-05-02T00:41:34.994Z,76.39
2018-05-02T00:44:02.448Z,76.61
2018-05-02T00:46:29.852Z,76.69
2018-05-02T00:49:08.795Z,77.06
2018-05-02T00:51:36.183Z,76.61
2018-05-02T00:54:03.611Z,76.67
2018-05-02T00:56:31.003Z,76.91
2018-05-02T00:58:58.383Z,77.08
2018-05-02T01:01:25.771Z,77.32
2018-05-02T01:03:53.166Z,77.28
2018-05-02T01:06:20.535Z,77.90
2018-05-02T01:08:47.911Z,77.66
2018-05-02T01:11:15.307Z,78.17
2018-05-02T01:13:42.693Z,78.04
2018-05-02T01:16:10.075Z,77.77
2018-05-02T01:18:37.454Z,77.89
2018-05-02T01:21:04.864Z,78.00
2018-05-02T01:23:32.223Z,77.98
2018-05-02T01:25:59.602Z,78.12
2018-05-02T01:28:26.995Z,78.45
2018-05-02T01:30:54.447Z,78.70
2018-05-02T01:33:21.822Z,78.65
2018-05-02T01:35:49.227Z,78.59
2018-05-02T01:38:16.611Z,78.76
2018-05-02T01:40:44.004Z,79.03
2018-05-02T01:43:11.399Z,79.43
2018-05-02T01:45:38.791Z,79.22
2018-05-02T01:48:06.177Z,78.85
2018-05-02T01:50:33.567Z,79.08
2018-05-02T01:53:00.943Z,78.85
2018-05-02T01:55:28.327Z,78.37
2018-05-02T01:57:55.726Z,78.72
2018-05-02T02:00:23.358Z,78.58
2018-05-02T02:02:50.748Z,78.83
2018-05-02T02:05:18.123Z,78.66
2018-05-02T02:07:45.503Z,78.81
2018-05-02T02:10:12.895Z,79.09
2018-05-02T02:12:40.270Z,79.46
2018-05-02T02:15:07.665Z,79.83
2018-05-02T02:17:35.041Z,80.01
2018-05-02T02:20:02.436Z,80.05
2018-05-02T02:22:29.819Z,80.25
2018-05-02T02:24:57.209Z,80.06
2018-05-02T02:27:24.587Z,80.16
2018-05-02T02:29:51.968Z,80.31
2018-05-02T02:32:19.357Z,79.89
2018-05-02T02:34:46.740Z,79.97
2018-05-02T02:37:14.115Z,80.03
2018-05-02T02:39:41.507Z,80.62
2018-05-02T02:42:08.883Z,80.81
2018-05-02T02:44:36.269Z,81.12
2018-05-02T02:47:03.655Z,81.11
2018-05-02T02:49:31.030Z,81.08
2018-05-02T02:51:58.419Z,81.27
2018-05-02T02:54:25.796Z,81.55
2018-05-02T02:56:53.179Z,81.54
2018-05-02T02:59:20.558Z,81.18
2018-05-02T03:01:47.946Z,81.34
2018-05-02T03:04:15.491Z,81.25
2018-05-02T03:06:42.879Z,81.39
2018-05-02T03:09:10.259Z,81.69
2018-05-02T03:11:37.647Z,82.10
2018-05-02T03:14:05.027Z,82.17
2018-05-02T03:16:32.410Z,81.76
2018-05-02T03:18:59.792Z,81.67
2018-05-02T03:21:27.175Z,81.92
2018-05-02T03:23:54.554Z,82.19
2018-05-02T03:26:21.945Z,82.20
2018-05-02T03:28:49.326Z,82.04
2018-05-02T03:31:16.704Z,82.18
2018-05-02T03:33:44.091Z,82.00
2018-05-02T03:36:11.480Z,81.99
2018-05-02T03:38:38.863Z,82.20
2018-05-02T03:41:06.239Z,82.25
2018-05-02T03:43:33.623Z,82.61
2018-05-02T03:46:00.999Z,82.75
2018-05-02T03:48:28.383Z,82.91
2018-05-02T03:50:55.758Z,83.12
2018-05-02T03:53:23.143Z,83.10
2018-05-02T03:55:50.524Z,83.12
2018-05-02T03:58:17.907Z,83.38
2018-05-02T04:00:57.122Z,83.52
2018-05-02T04:03:36.139Z,83.57
2018-05-02T04:09:02.315Z,83.29
2018-05-02T04:11:29.695Z,83.17
2018-05-02T04:13:57.143Z,83.22
2018-05-02T04:16:24.519Z,82.61
2018-05-02T04:18:51.910Z,82.25
2018-05-02T04:21:19.295Z,82.57
2018-05-02T04:23:46.684Z,82.85
2018-05-02T04:26:14.098Z,82.94
2018-05-02T04:28:41.479Z,83.03
2018-05-02T04:31:08.864Z,83.22
2018-05-02T04:33:36.242Z,83.24
2018-05-02T04:36:03.627Z,83.06
2018-05-02T04:38:31.003Z,82.75
2018-05-02T04:40:58.415Z,82.92
2018-05-02T04:43:25.771Z,83.05
2018-05-02T04:45:53.154Z,83.20
2018-05-02T04:48:20.951Z,83.28
2018-05-02T04:50:48.354Z,83.15
2018-05-02T04:53:15.735Z,83.25
2018-05-02T04:55:43.115Z,83.07
2018-05-02T04:58:10.490Z,82.67
2018-05-02T05:00:37.995Z,82.35
2018-05-02T05:03:05.370Z,82.10
2018-05-02T05:05:32.766Z,81.43
2018-05-02T05:08:00.143Z,81.08
2018-05-02T05:10:27.527Z,80.32
2018-05-02T05:12:54.962Z,80.36
2018-05-02T05:15:22.343Z,79.90
2018-05-02T05:17:49.738Z,79.48
2018-05-02T05:20:17.129Z,78.79
2018-05-02T05:22:44.511Z,77.71
2018-05-02T05:25:11.898Z,77.28
2018-05-02T05:27:39.286Z,77.05
2018-05-02T05:30:06.687Z,76.81
2018-05-02T05:32:34.078Z,75.81
2018-05-02T05:35:01.455Z,75.75
2018-05-02T05:37:28.839Z,75.12
2018-05-02T05:39:56.218Z,74.85
2018-05-02T05:42:23.608Z,75.63
2018-05-02T05:44:50.994Z,76.22
2018-05-02T05:47:18.382Z,76.36
2018-05-02T05:49:45.774Z,75.33
2018-05-02T05:52:13.165Z,75.37
2018-05-02T05:54:40.558Z,75.33
2018-05-02T05:57:07.938Z,75.32
2018-05-02T05:59:35.323Z,75.32
2018-05-02T06:02:02.707Z,75.77
2018-05-02T06:04:30.095Z,76.43
2018-05-02T06:06:57.484Z,76.30
2018-05-02T06:09:24.867Z,75.48
2018-05-02T06:11:52.255Z,74.82
2018-05-02T06:14:19.643Z,74.63
2018-05-02T06:16:47.023Z,75.47
2018-05-02T06:19:14.415Z,76.24
2018-05-02T06:21:41.798Z,73.18
2018-05-02T06:24:09.194Z,74.44
2018-05-02T06:26:36.658Z,74.12
2018-05-02T06:29:04.044Z,74.42
2018-05-02T06:31:31.422Z,74.67
2018-05-02T06:33:58.849Z,74.95
2018-05-02T06:36:26.230Z,74.01
2018-05-02T06:38:53.643Z,73.81
2018-05-02T06:41:21.033Z,73.28
2018-05-02T06:43:48.423Z,73.72
2018-05-02T06:46:15.799Z,72.59
2018-05-02T06:48:43.190Z,72.02
2018-05-02T06:51:10.575Z,71.49
2018-05-02T06:53:37.976Z,72.64
2018-05-02T06:56:05.375Z,72.41
2018-05-02T06:58:32.764Z,71.75
2018-05-02T07:01:00.220Z,70.92
2018-05-02T07:03:27.607Z,71.33
2018-05-02T07:08:21.693Z,70.00
2018-05-02T07:10:49.071Z,69.82
2018-05-02T07:13:16.479Z,69.37
2018-05-02T07:15:43.867Z,69.85
2018-05-02T07:18:11.599Z,69.93
2018-05-02T07:20:38.993Z,68.40
2018-05-02T07:23:06.447Z,68.82
2018-05-02T07:25:33.850Z,68.37
2018-05-02T07:28:01.250Z,68.37
2018-05-02T07:30:28.631Z,66.20
2018-05-02T07:32:56.128Z,66.37
2018-05-02T07:35:23.428Z,65.86
2018-05-02T07:37:50.807Z,65.42
2018-05-02T07:40:18.196Z,67.12
2018-05-02T07:42:45.591Z,66.16
2018-05-02T07:45:12.987Z,64.35
2018-05-02T07:47:40.682Z,65.50
2018-05-02T07:50:08.071Z,64.78
2018-05-02T07:52:35.519Z,66.03
2018-05-02T07:55:02.959Z,62.78
2018-05-02T07:57:30.294Z,62.51
2018-05-02T07:59:57.689Z,64.38
2018-05-02T08:02:25.070Z,64.67
2018-05-02T08:04:52.459Z,65.03
2018-05-02T08:07:19.839Z,64.35
2018-05-02T08:09:47.231Z,65.81
2018-05-02T08:12:14.618Z,65.17
2018-05-02T08:14:42.015Z,65.42
2018-05-02T08:17:09.396Z,65.17
2018-05-02T08:19:36.790Z,62.10
2018-05-02T08:22:04.173Z,63.61
2018-05-02T08:24:31.713Z,62.53
2018-05-02T08:26:59.095Z,58.69
2018-05-02T08:29:26.479Z,62.29
2018-05-02T08:31:53.866Z,59.54
2018-05-02T08:34:21.259Z,59.26
2018-05-02T08:36:48.651Z,58.49
2018-05-02T08:39:16.035Z,59.07
2018-05-02T08:41:43.432Z,60.33
2018-05-02T08:44:10.806Z,59.03
2018-05-02T08:46:38.198Z,57.90
2018-05-02T08:49:05.579Z,55.55
2018-05-02T08:51:32.970Z,55.41
2018-05-02T08:54:00.353Z,55.80
2018-05-02T08:56:27.750Z,55.50
2018-05-02T08:58:55.133Z,53.01
2018-05-02T09:01:22.570Z,51.68
2018-05-02T09:03:49.957Z,51.87
2018-05-02T09:06:17.326Z,49.18
2018-05-02T09:08:44.727Z,53.12
2018-05-02T09:11:12.111Z,49.15
2018-05-02T09:13:39.503Z,48.73
2018-05-02T09:16:06.895Z,47.84
2018-05-02T09:18:34.270Z,46.05
2018-05-02T09:21:01.663Z,45.06
2018-05-02T09:23:29.036Z,43.64
2018-05-02T09:25:56.418Z,46.26
2018-05-02T09:28:23.808Z,42.99
2018-05-02T09:30:51.206Z,45.05
2018-05-02T09:33:18.611Z,43.82
2018-05-02T09:35:46.025Z,42.36
2018-05-02T09:38:13.403Z,45.01
2018-05-02T09:40:40.789Z,44.23
2018-05-02T09:43:08.210Z,43.26
2018-05-02T09:45:35.583Z,43.67
2018-05-02T09:48:02.955Z,45.79
2018-05-02T09:50:30.433Z,38.96
2018-05-02T09:52:57.809Z,38.92
2018-05-02T09:55:25.190Z,36.94
2018-05-02T09:57:52.578Z,38.60
2018-05-02T10:00:19.959Z,35.93
2018-05-02T10:02:47.342Z,36.77
2018-05-02T10:05:14.726Z,38.61
2018-05-02T10:07:42.174Z,37.79
2018-05-02T10:10:09.563Z,35.97
2018-05-02T10:12:36.946Z,36.52
2018-05-02T10:15:04.320Z,37.30
2018-05-02T10:17:32.093Z,35.21
2018-05-02T10:19:59.456Z,35.83
2018-05-02T10:22:26.826Z,33.28
2018-05-02T10:24:54.207Z,35.68
2018-05-02T10:27:21.584Z,34.40
2018-05-02T10:29:48.972Z,34.37
2018-05-02T10:32:16.347Z,34.08
2018-05-02T10:34:43.727Z,32.81
2018-05-02T10:37:11.111Z,33.12
2018-05-02T10:39:38.480Z,32.62
2018-05-02T10:42:05.858Z,33.48
2018-05-02T10:44:33.239Z,33.70
2018-05-02T10:47:00.610Z,33.28
2018-05-02T10:49:28.013Z,35.48
2018-05-02T10:51:55.386Z,35.81
2018-05-02T10:54:22.773Z,35.39
2018-05-02T10:56:50.147Z,37.12
2018-05-02T10:59:17.547Z,34.06
2018-05-02T11:01:44.918Z,32.13
2018-05-02T11:04:12.299Z,33.79
2018-05-02T11:06:39.679Z,34.79
2018-05-02T11:09:07.055Z,34.59
2018-05-02T11:11:34.435Z,35.16
2018-05-02T11:14:01.807Z,32.94
2018-05-02T11:16:29.194Z,33.99
2018-05-02T11:18:56.570Z,34.36
2018-05-02T11:21:23.952Z,32.07
2018-05-02T11:23:51.327Z,32.79
2018-05-02T11:26:18.712Z,35.73
2018-05-02T11:28:46.100Z,33.16
2018-05-02T11:31:13.479Z,34.22
2018-05-02T11:33:40.863Z,34.40
2018-05-02T11:36:08.246Z,34.99
2018-05-02T11:38:35.628Z,31.84
2018-05-02T11:41:03.042Z,32.11
2018-05-02T11:43:30.418Z,30.06
2018-05-02T11:45:57.804Z,29.67
2018-05-02T11:48:25.183Z,32.28
2018-05-02T11:50:52.559Z,30.86
2018-05-02T11:53:19.981Z,29.16
2018-05-02T11:55:47.362Z,30.30
2018-05-02T11:58:14.745Z,30.67
2018-05-02T12:00:42.421Z,30.80
2018-05-02T12:03:09.806Z,34.54
2018-05-02T12:05:37.184Z,32.00
2018-05-02T12:08:04.563Z,29.55
2018-05-02T12:10:31.958Z,31.33
2018-05-02T12:12:59.336Z,30.44
2018-05-02T12:15:26.711Z,33.64
2018-05-02T12:17:54.119Z,32.63
2018-05-02T12:20:21.502Z,30.20
2018-05-02T12:22:48.879Z,32.12
2018-05-02T12:25:16.266Z,30.97
2018-05-02T12:27:43.723Z,34.41
2018-05-02T12:30:11.039Z,33.04
2018-05-02T12:32:38.418Z,32.45
2018-05-02T12:35:05.811Z,34.16
2018-05-02T12:37:33.254Z,32.76
2018-05-02T12:40:00.659Z,35.07
2018-05-02T12:42:28.047Z,31.97
2018-05-02T12:44:55.428Z,31.89
2018-05-02T12:47:22.815Z,33.51
2018-05-02T12:49:50.198Z,34.84
2018-05-02T12:52:17.587Z,36.40
2018-05-02T12:54:44.975Z,34.53
2018-05-02T12:57:12.359Z,32.48
2018-05-02T12:59:39.754Z,34.46
2018-05-02T13:02:07.147Z,36.04
2018-05-02T13:04:34.522Z,34.20
2018-05-02T13:07:01.927Z,36.20
2018-05-02T13:09:29.312Z,33.91
2018-05-02T13:11:56.706Z,34.33
2018-05-02T13:14:24.088Z,33.79
2018-05-02T13:16:51.487Z,36.36
2018-05-02T13:19:18.862Z,34.19
2018-05-02T13:21:46.242Z,35.21
2018-05-02T13:24:13.623Z,35.21
2018-05-02T13:26:41.006Z,33.39
2018-05-02T13:29:08.390Z,32.38
2018-05-02T13:31:35.782Z,33.11
2018-05-02T13:34:03.163Z,32.36
2018-05-02T13:36:30.542Z,33.74
2018-05-02T13:38:57.927Z,33.47
2018-05-02T13:41:25.706Z,35.07
2018-05-02T13:43:53.136Z,34.20
2018-05-02T13:46:20.471Z,32.68
2018-05-02T13:48:47.854Z,33.56
2018-05-02T13:51:15.230Z,35.02
2018-05-02T13:53:42.620Z,34.73
2018-05-02T13:56:09.998Z,35.67
2018-05-02T13:58:37.386Z,33.67
2018-05-02T14:01:04.758Z,34.69
2018-05-02T14:03:32.139Z,36.22
2018-05-02T14:05:59.519Z,35.50
2018-05-02T14:08:26.905Z,36.39
2018-05-02T14:10:54.374Z,32.61
2018-05-02T14:13:21.754Z,35.59
2018-05-02T14:15:49.141Z,34.36
2018-05-02T14:18:16.538Z,36.70
2018-05-02T14:20:43.914Z,35.06
2018-05-02T14:23:11.290Z,36.29
2018-05-02T14:25:38.680Z,35.85
2018-05-02T14:28:06.052Z,35.57
2018-05-02T14:30:33.447Z,34.90
2018-05-02T14:33:00.823Z,35.38
2018-05-02T14:35:28.210Z,35.22
2018-05-02T14:37:55.587Z,36.22
2018-05-02T14:40:22.966Z,36.49
2018-05-02T14:42:50.358Z,36.76
2018-05-02T14:45:17.824Z,35.00
2018-05-02T14:47:45.175Z,36.74
2018-05-02T14:50:13.579Z,35.45
2018-05-02T14:52:40.964Z,36.71
2018-05-02T14:55:08.434Z,36.16
2018-05-02T14:57:35.824Z,38.00
2018-05-02T15:00:03.240Z,36.34
2018-05-02T15:02:30.616Z,36.17
2018-05-02T15:04:58.003Z,37.69
2018-05-02T15:07:25.372Z,37.60
2018-05-02T15:09:52.779Z,35.86
2018-05-02T15:12:20.178Z,36.73
2018-05-02T15:14:47.557Z,37.34
2018-05-02T15:17:14.939Z,37.00
2018-05-02T15:19:42.500Z,37.36
2018-05-02T15:22:11.083Z,34.91
2018-05-02T15:24:38.515Z,37.99
2018-05-02T15:27:05.843Z,38.47
2018-05-02T15:29:33.279Z,38.24
2018-05-02T15:32:00.666Z,37.99
2018-05-02T15:34:28.055Z,38.08
2018-05-02T15:36:55.440Z,37.79
2018-05-02T15:39:22.827Z,36.16
2018-05-02T15:41:50.203Z,39.24
2018-05-02T15:44:17.594Z,37.57
2018-05-02T15:46:44.978Z,37.41
2018-05-02T15:49:12.413Z,37.83
2018-05-02T15:51:39.734Z,38.95
2018-05-02T15:54:07.128Z,40.63
2018-05-02T15:56:34.510Z,38.25
2018-05-02T15:59:01.896Z,40.31
2018-05-02T16:01:29.275Z,40.39
2018-05-02T16:03:56.679Z,40.16
2018-05-02T16:06:24.048Z,38.99
2018-05-02T16:08:51.448Z,39.19
2018-05-02T16:11:18.975Z,40.18
2018-05-02T16:13:46.363Z,40.23
2018-05-02T16:16:13.743Z,39.55
2018-05-02T16:18:41.133Z,40.96
2018-05-02T16:21:08.506Z,40.53
2018-05-02T16:23:35.896Z,39.68
2018-05-02T16:26:03.278Z,39.78
2018-05-02T16:28:30.663Z,40.68
2018-05-02T16:30:58.054Z,41.24
2018-05-02T16:33:25.443Z,41.10
2018-05-02T16:35:52.840Z,41.24
2018-05-02T16:38:20.218Z,40.77
2018-05-02T16:40:47.611Z,40.40
2018-05-02T16:43:14.994Z,40.65
2018-05-02T16:45:42.382Z,41.06
2018-05-02T16:48:09.759Z,42.67
2018-05-02T16:50:37.143Z,40.98
2018-05-02T16:53:04.531Z,41.71
2018-05-02T16:55:31.944Z,41.22
2018-05-02T16:57:59.319Z,44.34
2018-05-02T17:00:26.720Z,44.37
2018-05-02T17:02:54.114Z,43.34
2018-05-02T17:05:21.533Z,46.28
2018-05-02T17:07:48.931Z,43.72
2018-05-02T17:10:16.315Z,44.38
2018-05-02T17:12:43.709Z,45.58
2018-05-02T17:15:11.099Z,42.49
2018-05-02T17:17:38.891Z,44.14
2018-05-02T17:20:06.280Z,44.26
2018-05-02T17:22:33.803Z,45.61
2018-05-02T17:25:01.212Z,47.02
2018-05-02T17:27:28.606Z,46.53
2018-05-02T17:29:56.054Z,46.20
2018-05-02T17:32:23.435Z,45.21
2018-05-02T17:34:51.295Z,46.33
2018-05-02T17:37:18.667Z,47.28
2018-05-02T17:39:46.049Z,46.00
2018-05-02T17:42:13.439Z,47.05
2018-05-02T17:44:40.817Z,46.87
2018-05-02T17:47:08.207Z,46.35
2018-05-02T17:49:35.636Z,48.54
2018-05-02T17:52:03.518Z,46.23
2018-05-02T17:54:30.907Z,49.15
2018-05-02T17:56:58.282Z,49.49
2018-05-02T17:59:25.676Z,49.34
2018-05-02T18:01:53.067Z,47.82
2018-05-02T18:04:20.475Z,49.17
2018-05-02T18:06:47.858Z,49.15
2018-05-02T18:09:15.247Z,50.05
2018-05-02T18:11:42.632Z,48.68
2018-05-02T18:14:10.026Z,49.05
2018-05-02T18:16:37.407Z,49.08
2018-05-02T18:19:04.799Z,49.54
2018-05-02T18:21:32.194Z,50.18
2018-05-02T18:23:59.582Z,50.09
2018-05-02T18:26:27.039Z,49.05
2018-05-02T18:28:54.428Z,50.15
2018-05-02T18:31:21.815Z,50.33
2018-05-02T18:33:49.254Z,51.27
2018-05-02T18:36:16.636Z,51.37
2018-05-02T18:38:44.031Z,51.74
2018-05-02T18:41:11.415Z,51.71
2018-05-02T18:43:38.815Z,51.97
2018-05-02T18:46:06.202Z,52.51
2018-05-02T18:48:33.600Z,53.29
2018-05-02T18:51:00.986Z,53.36
2018-05-02T18:53:28.395Z,53.17
2018-05-02T18:55:55.783Z,53.93
2018-05-02T18:58:23.169Z,54.75
2018-05-02T19:00:50.568Z,54.23
2018-05-02T19:03:18.894Z,54.50
2018-05-02T19:05:46.351Z,54.57
2018-05-02T19:08:13.752Z,55.78
2018-05-02T19:10:41.155Z,56.28
2018-05-02T19:13:08.571Z,56.81
2018-05-02T19:15:36.981Z,57.43
2018-05-02T19:18:09.835Z,57.94
2018-05-02T19:20:37.229Z,57.70
2018-05-02T19:23:04.627Z,58.19
2018-05-02T19:25:37.607Z,57.40
2018-05-02T19:28:05.060Z,57.43
2018-05-02T19:30:32.435Z,57.54
2018-05-02T19:33:05.355Z,57.95
2018-05-02T19:35:32.770Z,58.13
2018-05-02T19:38:00.164Z,58.17
2018-05-02T19:40:33.117Z,58.09
2018-05-02T19:43:05.979Z,57.53
2018-05-02T19:45:33.495Z,57.03
2018-05-02T19:48:00.876Z,57.47
2018-05-02T19:50:28.263Z,57.81
2018-05-02T19:52:55.942Z,57.94
2018-05-02T19:55:23.330Z,57.90
2018-05-02T19:57:50.720Z,57.91
2018-05-02T20:00:23.737Z,57.60
2018-05-02T20:02:56.779Z,57.84
2018-05-02T20:05:24.174Z,58.49
2018-05-02T20:07:51.560Z,58.44
2018-05-02T20:10:24.554Z,58.96
2018-05-02T20:12:57.647Z,58.82
2018-05-02T20:15:25.100Z,59.13
2018-05-02T20:17:52.506Z,59.50
2018-05-02T20:20:19.892Z,59.76
2018-05-02T20:22:47.294Z,59.02
2018-05-02T20:25:14.853Z,59.02
2018-05-02T20:27:42.087Z,59.56
2018-05-02T20:30:09.471Z,60.16
2018-05-02T20:32:36.882Z,60.20
2018-05-02T20:35:04.267Z,60.57
2018-05-02T20:37:31.695Z,60.79
2018-05-02T20:39:59.062Z,60.65
2018-05-02T20:42:26.487Z,61.92
2018-05-02T20:44:53.871Z,61.44
2018-05-02T20:47:21.251Z,61.08
2018-05-02T20:49:48.655Z,60.91
2018-05-02T20:52:16.208Z,61.21
2018-05-02T20:54:43.613Z,61.96
2018-05-02T20:57:10.990Z,61.33
2018-05-02T20:59:38.372Z,61.09
2018-05-02T21:02:05.766Z,62.49
2018-05-02T21:04:33.147Z,61.96
2018-05-02T21:07:00.535Z,61.98
2018-05-02T21:09:28.083Z,62.61
2018-05-02T21:11:55.466Z,62.78
2018-05-02T21:14:23.319Z,62.88
2018-05-02T21:16:50.791Z,63.22
2018-05-02T21:19:18.210Z,62.79
2018-05-02T21:21:45.674Z,63.31
2018-05-02T21:24:13.060Z,63.62
2018-05-02T21:26:40.455Z,63.06
2018-05-02T21:29:07.838Z,63.69
2018-05-02T21:31:35.274Z,64.04
2018-05-02T21:34:02.695Z,64.08
2018-05-02T21:36:30.099Z,64.25
2018-05-02T21:38:57.499Z,64.63
2018-05-02T21:41:24.888Z,65.15
2018-05-02T21:43:52.271Z,65.52
2018-05-02T21:46:19.655Z,66.00
2018-05-02T21:48:47.163Z,66.78
2018-05-02T21:51:14.566Z,67.00
2018-05-02T21:53:42.016Z,67.86
2018-05-02T21:56:09.403Z,68.21
2018-05-02T21:58:36.814Z,67.80
2018-05-02T22:01:04.203Z,68.32
2018-05-02T22:03:31.591Z,67.35
2018-05-02T22:05:59.006Z,68.35
2018-05-02T22:08:26.390Z,68.96
2018-05-02T22:10:53.777Z,69.19
2018-05-02T22:13:21.166Z,69.61
2018-05-02T22:15:48.555Z,69.73
2018-05-02T22:18:16.091Z,70.14
2018-05-02T22:20:43.472Z,70.49
2018-05-02T22:23:10.871Z,70.35
2018-05-02T22:25:38.262Z,69.88
2018-05-02T22:28:05.714Z,69.98
2018-05-02T22:30:33.115Z,69.98
2018-05-02T22:33:00.504Z,70.14
2018-05-02T22:35:27.904Z,70.33
2018-05-02T22:37:55.287Z,68.82
2018-05-02T22:40:22.686Z,68.70
2018-05-02T22:42:50.120Z,69.06
2018-05-02T22:45:17.502Z,69.44
2018-05-02T22:47:44.981Z,70.26
2018-05-02T22:50:12.384Z,70.42
2018-05-02T22:52:39.747Z,70.51
2018-05-02T22:55:07.128Z,70.73
2018-05-02T22:57:34.525Z,71.17
2018-05-02T23:02:28.659Z,71.87
2018-05-02T23:04:56.060Z,71.81
2018-05-02T23:07:23.446Z,71.85
2018-05-02T23:09:50.840Z,72.14
2018-05-02T23:12:18.240Z,72.03
2018-05-02T23:14:45.632Z,71.96
2018-05-02T23:17:13.015Z,72.08
2018-05-02T23:19:40.475Z,72.04
2018-05-02T23:22:07.871Z,72.16
2018-05-02T23:24:35.255Z,72.31
2018-05-02T23:27:02.807Z,72.55
2018-05-02T23:29:30.191Z,72.70
2018-05-02T23:31:57.586Z,71.41
2018-05-02T23:34:24.971Z,70.60
2018-05-02T23:36:52.371Z,70.41
2018-05-02T23:39:19.763Z,70.89
2018-05-02T23:41:47.143Z,70.50
2018-05-02T23:44:14.548Z,70.21
2018-05-02T23:46:41.942Z,70.28
2018-05-02T23:49:09.358Z,71.54
2018-05-02T23:51:36.740Z,72.29
2018-05-02T23:54:04.134Z,72.90
2018-05-02T23:56:31.515Z,73.45
2018-05-02T23:58:58.902Z,73.42
